sensor_id;sensor_type;location;lat;lon;timestamp;temperature;humidity
8780;DHT22;62328;51.19929245;4.42130175;2023-03-23T00:00:15;13.30;99.90
8780;DHT22;62328;51.19929245;4.42130175;2023-03-23T00:02:45;13.20;99.90
8780;DHT22;62328;51.19929245;4.42130175;2023-03-23T00:05:15;13.30;99.90
8780;DHT22;62328;51.19929245;4.42130175;2023-03-23T00:07:45;13.30;99.90
8780;DHT22;62328;51.19929245;4.42130175;2023-03-23T00:10:20;13.30;99.90
8780;DHT22;62328;51.19929245;4.42130175;2023-03-23T00:12:57;13.30;99.90
8780;DHT22;62328;51.19929245;4.42130175;2023-03-23T00:15:29;13.30;99.90
8780;DHT22;62328;51.19929245;4.42130175;2023-03-23T00:17:58;13.30;99.90
8780;DHT22;62328;51.19929245;4.42130175;2023-03-23T00:20:31;13.20;99.90
8780;DHT22;62328;51.19929245;4.42130175;2023-03-23T00:23:07;13.20;99.90
8780;DHT22;62328;51.19929245;4.42130175;2023-03-23T00:25:35;13.30;99.90
8780;DHT22;62328;51.19929245;4.42130175;2023-03-23T00:28:08;13.30;99.90
8780;DHT22;62328;51.19929245;4.42130175;2023-03-23T00:30:44;13.20;99.90
8780;DHT22;62328;51.19929245;4.42130175;2023-03-23T00:33:19;13.20;99.90
8780;DHT22;62328;51.19929245;4.42130175;2023-03-23T00:35:49;13.30;99.90
8780;DHT22;62328;51.19929245;4.42130175;2023-03-23T00:38:22;13.30;99.90
8780;DHT22;62328;51.19929245;4.42130175;2023-03-23T00:40:52;13.30;99.90
8780;DHT22;62328;51.19929245;4.42130175;2023-03-23T00:43:27;13.30;99.90
8780;DHT22;62328;51.19929245;4.42130175;2023-03-23T00:45:58;13.30;99.90
8780;DHT22;62328;51.19929245;4.42130175;2023-03-23T00:48:29;13.30;99.90
8780;DHT22;62328;51.19929245;4.42130175;2023-03-23T00:50:59;13.30;99.90
8780;DHT22;62328;51.19929245;4.42130175;2023-03-23T00:53:29;13.30;99.90
8780;DHT22;62328;51.19929245;4.42130175;2023-03-23T00:55:58;13.30;99.90
8780;DHT22;62328;51.19929245;4.42130175;2023-03-23T00:58:29;13.30;99.90
8780;DHT22;62328;51.19929245;4.42130175;2023-03-23T01:00:59;13.30;99.90
8780;DHT22;62328;51.19929245;4.42130175;2023-03-23T01:03:29;13.30;99.90
8780;DHT22;62328;51.19929245;4.42130175;2023-03-23T01:06:04;13.30;99.90
8780;DHT22;62328;51.19929245;4.42130175;2023-03-23T01:08:34;13.30;99.90
8780;DHT22;62328;51.19929245;4.42130175;2023-03-23T01:11:05;13.30;99.90
8780;DHT22;62328;51.19929245;4.42130175;2023-03-23T01:13:35;13.30;99.90
8780;DHT22;62328;51.19929245;4.42130175;2023-03-23T01:16:06;13.30;99.90
8780;DHT22;62328;51.19929245;4.42130175;2023-03-23T01:18:39;13.30;99.90
8780;DHT22;62328;51.19929245;4.42130175;2023-03-23T01:21:07;13.30;99.90
8780;DHT22;62328;51.19929245;4.42130175;2023-03-23T01:23:38;13.30;99.90
8780;DHT22;62328;51.19929245;4.42130175;2023-03-23T01:26:08;13.30;99.90
8780;DHT22;62328;51.19929245;4.42130175;2023-03-23T01:28:41;13.30;99.90
8780;DHT22;62328;51.19929245;4.42130175;2023-03-23T01:31:24;13.30;99.90
8780;DHT22;62328;51.19929245;4.42130175;2023-03-23T01:33:53;13.30;99.90
8780;DHT22;62328;51.19929245;4.42130175;2023-03-23T01:36:25;13.30;99.90
8780;DHT22;62328;51.19929245;4.42130175;2023-03-23T01:39:01;13.30;99.90
8780;DHT22;62328;51.19929245;4.42130175;2023-03-23T01:41:32;13.40;99.90
8780;DHT22;62328;51.19929245;4.42130175;2023-03-23T01:44:06;13.30;99.90
8780;DHT22;62328;51.19929245;4.42130175;2023-03-23T01:46:47;13.40;99.90
8780;DHT22;62328;51.19929245;4.42130175;2023-03-23T01:49:25;13.30;99.90
8780;DHT22;62328;51.19929245;4.42130175;2023-03-23T01:52:05;13.30;99.90
8780;DHT22;62328;51.19929245;4.42130175;2023-03-23T01:54:37;13.30;99.90
8780;DHT22;62328;51.19929245;4.42130175;2023-03-23T01:57:07;13.40;99.90
8780;DHT22;62328;51.19929245;4.42130175;2023-03-23T01:59:47;13.30;99.90
8780;DHT22;62328;51.19929245;4.42130175;2023-03-23T02:02:18;13.30;99.90
8780;DHT22;62328;51.19929245;4.42130175;2023-03-23T02:04:50;13.30;99.90
8780;DHT22;62328;51.19929245;4.42130175;2023-03-23T02:07:21;13.30;99.90
8780;DHT22;62328;51.19929245;4.42130175;2023-03-23T02:09:52;13.40;99.90
8780;DHT22;62328;51.19929245;4.42130175;2023-03-23T02:12:20;13.30;99.90
8780;DHT22;62328;51.19929245;4.42130175;2023-03-23T02:14:52;13.40;99.90
8780;DHT22;62328;51.19929245;4.42130175;2023-03-23T02:17:27;13.30;99.90
8780;DHT22;62328;51.19929245;4.42130175;2023-03-23T02:20:13;13.30;99.90
8780;DHT22;62328;51.19929245;4.42130175;2023-03-23T02:23:13;13.30;99.90
8780;DHT22;62328;51.19929245;4.42130175;2023-03-23T02:25:58;13.30;99.90
8780;DHT22;62328;51.19929245;4.42130175;2023-03-23T02:32:10;13.30;99.90
8780;DHT22;62328;51.19929245;4.42130175;2023-03-23T02:34:49;13.30;99.90
8780;DHT22;62328;51.19929245;4.42130175;2023-03-23T02:37:23;13.30;99.90
8780;DHT22;62328;51.19929245;4.42130175;2023-03-23T02:39:57;13.30;99.90
8780;DHT22;62328;51.19929245;4.42130175;2023-03-23T02:42:30;13.30;99.90
8780;DHT22;62328;51.19929245;4.42130175;2023-03-23T02:45:04;13.30;99.90
8780;DHT22;62328;51.19929245;4.42130175;2023-03-23T02:47:35;13.30;99.90
8780;DHT22;62328;51.19929245;4.42130175;2023-03-23T02:50:11;13.20;99.90
8780;DHT22;62328;51.19929245;4.42130175;2023-03-23T02:52:58;13.30;99.90
8780;DHT22;62328;51.19929245;4.42130175;2023-03-23T02:55:31;13.20;99.90
8780;DHT22;62328;51.19929245;4.42130175;2023-03-23T02:58:00;13.20;99.90
8780;DHT22;62328;51.19929245;4.42130175;2023-03-23T03:00:30;13.20;99.90
8780;DHT22;62328;51.19929245;4.42130175;2023-03-23T03:03:04;13.20;99.90
8780;DHT22;62328;51.19929245;4.42130175;2023-03-23T03:05:40;13.20;99.90
8780;DHT22;62328;51.19929245;4.42130175;2023-03-23T03:08:18;13.20;99.90
8780;DHT22;62328;51.19929245;4.42130175;2023-03-23T03:10:53;13.20;99.90
8780;DHT22;62328;51.19929245;4.42130175;2023-03-23T03:13:34;13.20;99.90
8780;DHT22;62328;51.19929245;4.42130175;2023-03-23T03:16:10;13.20;99.90
8780;DHT22;62328;51.19929245;4.42130175;2023-03-23T03:18:47;13.10;99.90
8780;DHT22;62328;51.19929245;4.42130175;2023-03-23T03:21:20;13.20;99.90
8780;DHT22;62328;51.19929245;4.42130175;2023-03-23T03:23:54;13.10;99.90
8780;DHT22;62328;51.19929245;4.42130175;2023-03-23T03:26:26;13.10;99.90
8780;DHT22;62328;51.19929245;4.42130175;2023-03-23T03:28:56;13.10;99.90
8780;DHT22;62328;51.19929245;4.42130175;2023-03-23T03:31:29;13.10;99.90
8780;DHT22;62328;51.19929245;4.42130175;2023-03-23T03:34:00;13.10;99.90
8780;DHT22;62328;51.19929245;4.42130175;2023-03-23T03:36:34;13.20;99.90
8780;DHT22;62328;51.19929245;4.42130175;2023-03-23T03:39:08;13.10;99.90
8780;DHT22;62328;51.19929245;4.42130175;2023-03-23T03:41:38;13.10;99.90
8780;DHT22;62328;51.19929245;4.42130175;2023-03-23T03:44:09;13.10;99.90
8780;DHT22;62328;51.19929245;4.42130175;2023-03-23T03:46:39;13.10;99.90
8780;DHT22;62328;51.19929245;4.42130175;2023-03-23T03:49:10;13.10;99.90
8780;DHT22;62328;51.19929245;4.42130175;2023-03-23T03:51:45;13.10;99.90
8780;DHT22;62328;51.19929245;4.42130175;2023-03-23T03:54:15;13.10;99.90
8780;DHT22;62328;51.19929245;4.42130175;2023-03-23T03:56:46;13.10;99.90
8780;DHT22;62328;51.19929245;4.42130175;2023-03-23T03:59:18;13.20;99.90
8780;DHT22;62328;51.19929245;4.42130175;2023-03-23T04:01:48;13.20;99.90
8780;DHT22;62328;51.19929245;4.42130175;2023-03-23T04:04:19;13.10;99.90
8780;DHT22;62328;51.19929245;4.42130175;2023-03-23T04:06:51;13.20;99.90
8780;DHT22;62328;51.19929245;4.42130175;2023-03-23T04:09:19;13.10;99.90
8780;DHT22;62328;51.19929245;4.42130175;2023-03-23T04:11:49;13.10;99.90
8780;DHT22;62328;51.19929245;4.42130175;2023-03-23T04:14:19;13.10;99.90
8780;DHT22;62328;51.19929245;4.42130175;2023-03-23T04:16:49;13.10;99.90
8780;DHT22;62328;51.19929245;4.42130175;2023-03-23T04:19:24;13.10;99.90
8780;DHT22;62328;51.19929245;4.42130175;2023-03-23T04:21:56;13.10;99.90
8780;DHT22;62328;51.19929245;4.42130175;2023-03-23T04:24:23;13.10;99.90
8780;DHT22;62328;51.19929245;4.42130175;2023-03-23T04:26:59;13.10;99.90
8780;DHT22;62328;51.19929245;4.42130175;2023-03-23T04:29:28;13.10;99.90
8780;DHT22;62328;51.19929245;4.42130175;2023-03-23T04:31:58;13.10;99.90
8780;DHT22;62328;51.19929245;4.42130175;2023-03-23T04:34:27;13.10;99.90
8780;DHT22;62328;51.19929245;4.42130175;2023-03-23T04:37:04;13.00;99.90
8780;DHT22;62328;51.19929245;4.42130175;2023-03-23T04:39:32;12.90;99.90
8780;DHT22;62328;51.19929245;4.42130175;2023-03-23T04:42:02;12.90;99.90
8780;DHT22;62328;51.19929245;4.42130175;2023-03-23T04:44:31;12.90;99.90
8780;DHT22;62328;51.19929245;4.42130175;2023-03-23T04:47:01;12.90;99.90
8780;DHT22;62328;51.19929245;4.42130175;2023-03-23T04:49:29;12.90;99.90
8780;DHT22;62328;51.19929245;4.42130175;2023-03-23T04:51:59;13.00;99.90
8780;DHT22;62328;51.19929245;4.42130175;2023-03-23T04:54:30;12.90;99.90
8780;DHT22;62328;51.19929245;4.42130175;2023-03-23T04:56:59;12.90;99.90
8780;DHT22;62328;51.19929245;4.42130175;2023-03-23T04:59:27;12.90;99.90
8780;DHT22;62328;51.19929245;4.42130175;2023-03-23T05:01:59;12.90;99.90
8780;DHT22;62328;51.19929245;4.42130175;2023-03-23T05:04:26;13.00;99.90
8780;DHT22;62328;51.19929245;4.42130175;2023-03-23T05:06:59;12.90;99.90
8780;DHT22;62328;51.19929245;4.42130175;2023-03-23T05:09:27;12.90;99.90
8780;DHT22;62328;51.19929245;4.42130175;2023-03-23T05:12:02;12.90;99.90
8780;DHT22;62328;51.19929245;4.42130175;2023-03-23T05:14:29;12.90;99.90
8780;DHT22;62328;51.19929245;4.42130175;2023-03-23T05:16:56;12.90;99.90
8780;DHT22;62328;51.19929245;4.42130175;2023-03-23T05:19:23;12.90;99.90
8780;DHT22;62328;51.19929245;4.42130175;2023-03-23T05:21:50;12.90;99.90
8780;DHT22;62328;51.19929245;4.42130175;2023-03-23T05:24:17;12.90;99.90
8780;DHT22;62328;51.19929245;4.42130175;2023-03-23T05:26:45;12.90;99.90
8780;DHT22;62328;51.19929245;4.42130175;2023-03-23T05:29:13;12.90;99.90
8780;DHT22;62328;51.19929245;4.42130175;2023-03-23T05:31:43;12.90;99.90
8780;DHT22;62328;51.19929245;4.42130175;2023-03-23T05:34:10;12.80;99.90
8780;DHT22;62328;51.19929245;4.42130175;2023-03-23T05:36:37;12.90;99.90
8780;DHT22;62328;51.19929245;4.42130175;2023-03-23T05:39:04;12.90;99.90
8780;DHT22;62328;51.19929245;4.42130175;2023-03-23T05:41:31;12.80;99.90
8780;DHT22;62328;51.19929245;4.42130175;2023-03-23T05:44:00;12.80;99.90
8780;DHT22;62328;51.19929245;4.42130175;2023-03-23T05:46:28;12.90;99.90
8780;DHT22;62328;51.19929245;4.42130175;2023-03-23T05:48:54;12.90;99.90
8780;DHT22;62328;51.19929245;4.42130175;2023-03-23T05:51:21;12.90;99.90
8780;DHT22;62328;51.19929245;4.42130175;2023-03-23T05:53:48;12.90;99.90
8780;DHT22;62328;51.19929245;4.42130175;2023-03-23T05:56:15;12.90;99.90
8780;DHT22;62328;51.19929245;4.42130175;2023-03-23T05:58:42;12.80;99.90
8780;DHT22;62328;51.19929245;4.42130175;2023-03-23T06:01:10;12.70;99.90
8780;DHT22;62328;51.19929245;4.42130175;2023-03-23T06:03:39;12.70;99.90
8780;DHT22;62328;51.19929245;4.42130175;2023-03-23T06:06:06;12.60;99.90
8780;DHT22;62328;51.19929245;4.42130175;2023-03-23T06:08:33;12.60;99.90
8780;DHT22;62328;51.19929245;4.42130175;2023-03-23T06:11:02;12.50;99.90
8780;DHT22;62328;51.19929245;4.42130175;2023-03-23T06:13:29;12.40;99.90
8780;DHT22;62328;51.19929245;4.42130175;2023-03-23T06:15:57;12.50;99.90
8780;DHT22;62328;51.19929245;4.42130175;2023-03-23T06:18:25;12.40;99.90
8780;DHT22;62328;51.19929245;4.42130175;2023-03-23T06:20:54;12.40;99.90
8780;DHT22;62328;51.19929245;4.42130175;2023-03-23T06:23:21;12.30;99.90
8780;DHT22;62328;51.19929245;4.42130175;2023-03-23T06:25:48;12.30;99.90
8780;DHT22;62328;51.19929245;4.42130175;2023-03-23T06:28:15;12.30;99.90
8780;DHT22;62328;51.19929245;4.42130175;2023-03-23T06:30:42;12.30;99.90
8780;DHT22;62328;51.19929245;4.42130175;2023-03-23T06:33:09;12.30;99.90
8780;DHT22;62328;51.19929245;4.42130175;2023-03-23T06:35:38;12.20;99.90
8780;DHT22;62328;51.19929245;4.42130175;2023-03-23T06:38:04;12.20;99.90
8780;DHT22;62328;51.19929245;4.42130175;2023-03-23T06:40:31;12.20;99.90
8780;DHT22;62328;51.19929245;4.42130175;2023-03-23T06:42:58;12.00;99.90
8780;DHT22;62328;51.19929245;4.42130175;2023-03-23T06:45:25;11.90;99.90
8780;DHT22;62328;51.19929245;4.42130175;2023-03-23T06:47:52;11.90;99.90
8780;DHT22;62328;51.19929245;4.42130175;2023-03-23T06:50:19;11.80;99.90
8780;DHT22;62328;51.19929245;4.42130175;2023-03-23T06:52:49;11.80;99.90
8780;DHT22;62328;51.19929245;4.42130175;2023-03-23T06:55:17;11.70;99.90
8780;DHT22;62328;51.19929245;4.42130175;2023-03-23T06:57:44;11.60;99.90
8780;DHT22;62328;51.19929245;4.42130175;2023-03-23T07:00:12;11.60;99.90
8780;DHT22;62328;51.19929245;4.42130175;2023-03-23T07:02:40;11.70;99.90
8780;DHT22;62328;51.19929245;4.42130175;2023-03-23T07:05:08;11.60;99.90
8780;DHT22;62328;51.19929245;4.42130175;2023-03-23T07:07:36;11.60;99.90
8780;DHT22;62328;51.19929245;4.42130175;2023-03-23T07:10:06;11.60;99.90
8780;DHT22;62328;51.19929245;4.42130175;2023-03-23T07:12:34;11.50;99.90
8780;DHT22;62328;51.19929245;4.42130175;2023-03-23T07:15:01;11.50;99.90
8780;DHT22;62328;51.19929245;4.42130175;2023-03-23T07:17:28;11.50;99.90
8780;DHT22;62328;51.19929245;4.42130175;2023-03-23T07:19:55;11.50;99.90
8780;DHT22;62328;51.19929245;4.42130175;2023-03-23T07:22:22;11.40;99.90
8780;DHT22;62328;51.19929245;4.42130175;2023-03-23T07:24:50;11.40;99.90
8780;DHT22;62328;51.19929245;4.42130175;2023-03-23T07:27:18;11.40;99.90
8780;DHT22;62328;51.19929245;4.42130175;2023-03-23T07:29:45;11.30;99.90
8780;DHT22;62328;51.19929245;4.42130175;2023-03-23T07:32:12;11.20;99.90
8780;DHT22;62328;51.19929245;4.42130175;2023-03-23T07:34:39;11.30;99.90
8780;DHT22;62328;51.19929245;4.42130175;2023-03-23T07:37:06;11.30;99.90
8780;DHT22;62328;51.19929245;4.42130175;2023-03-23T07:39:33;11.30;99.90
8780;DHT22;62328;51.19929245;4.42130175;2023-03-23T07:42:00;11.20;99.90
8780;DHT22;62328;51.19929245;4.42130175;2023-03-23T07:44:28;11.20;99.90
8780;DHT22;62328;51.19929245;4.42130175;2023-03-23T07:46:55;11.20;99.90
8780;DHT22;62328;51.19929245;4.42130175;2023-03-23T07:49:22;11.20;99.90
8780;DHT22;62328;51.19929245;4.42130175;2023-03-23T07:51:49;11.20;99.90
8780;DHT22;62328;51.19929245;4.42130175;2023-03-23T07:54:16;11.20;99.90
8780;DHT22;62328;51.19929245;4.42130175;2023-03-23T07:56:44;11.20;99.90
8780;DHT22;62328;51.19929245;4.42130175;2023-03-23T07:59:12;11.20;99.90
8780;DHT22;62328;51.19929245;4.42130175;2023-03-23T08:01:40;11.20;99.90
8780;DHT22;62328;51.19929245;4.42130175;2023-03-23T08:04:07;11.20;99.90
8780;DHT22;62328;51.19929245;4.42130175;2023-03-23T08:06:35;11.30;99.90
8780;DHT22;62328;51.19929245;4.42130175;2023-03-23T08:09:02;11.40;99.90
8780;DHT22;62328;51.19929245;4.42130175;2023-03-23T08:11:32;11.40;99.90
8780;DHT22;62328;51.19929245;4.42130175;2023-03-23T08:13:59;11.50;99.90
8780;DHT22;62328;51.19929245;4.42130175;2023-03-23T08:16:25;11.60;99.90
8780;DHT22;62328;51.19929245;4.42130175;2023-03-23T08:18:54;11.60;99.90
8780;DHT22;62328;51.19929245;4.42130175;2023-03-23T08:21:22;11.60;99.90
8780;DHT22;62328;51.19929245;4.42130175;2023-03-23T08:23:49;11.80;99.90
8780;DHT22;62328;51.19929245;4.42130175;2023-03-23T08:26:16;11.80;99.90
8780;DHT22;62328;51.19929245;4.42130175;2023-03-23T08:28:43;11.90;99.90
8780;DHT22;62328;51.19929245;4.42130175;2023-03-23T08:31:12;11.80;99.90
8780;DHT22;62328;51.19929245;4.42130175;2023-03-23T08:33:40;11.80;99.90
8780;DHT22;62328;51.19929245;4.42130175;2023-03-23T08:36:09;11.90;99.90
8780;DHT22;62328;51.19929245;4.42130175;2023-03-23T08:38:36;11.80;99.90
8780;DHT22;62328;51.19929245;4.42130175;2023-03-23T08:41:04;11.90;99.90
8780;DHT22;62328;51.19929245;4.42130175;2023-03-23T08:43:33;12.00;99.90
8780;DHT22;62328;51.19929245;4.42130175;2023-03-23T08:46:01;12.00;99.90
8780;DHT22;62328;51.19929245;4.42130175;2023-03-23T08:48:32;11.90;99.90
8780;DHT22;62328;51.19929245;4.42130175;2023-03-23T08:51:00;11.90;99.90
8780;DHT22;62328;51.19929245;4.42130175;2023-03-23T08:53:29;12.00;99.90
8780;DHT22;62328;51.19929245;4.42130175;2023-03-23T08:56:02;12.10;99.90
8780;DHT22;62328;51.19929245;4.42130175;2023-03-23T08:58:29;12.20;99.90
8780;DHT22;62328;51.19929245;4.42130175;2023-03-23T09:00:56;12.20;99.90
8780;DHT22;62328;51.19929245;4.42130175;2023-03-23T09:03:23;12.30;99.90
8780;DHT22;62328;51.19929245;4.42130175;2023-03-23T09:05:50;12.30;99.90
8780;DHT22;62328;51.19929245;4.42130175;2023-03-23T09:08:19;12.30;99.90
8780;DHT22;62328;51.19929245;4.42130175;2023-03-23T09:10:47;12.30;99.90
8780;DHT22;62328;51.19929245;4.42130175;2023-03-23T09:13:15;12.40;99.90
8780;DHT22;62328;51.19929245;4.42130175;2023-03-23T09:15:42;12.50;99.90
8780;DHT22;62328;51.19929245;4.42130175;2023-03-23T09:18:11;12.60;99.90
8780;DHT22;62328;51.19929245;4.42130175;2023-03-23T09:20:38;12.70;99.90
8780;DHT22;62328;51.19929245;4.42130175;2023-03-23T09:23:05;12.80;99.90
8780;DHT22;62328;51.19929245;4.42130175;2023-03-23T09:25:32;12.90;99.90
8780;DHT22;62328;51.19929245;4.42130175;2023-03-23T09:28:00;12.90;99.90
8780;DHT22;62328;51.19929245;4.42130175;2023-03-23T09:30:29;13.00;99.90
8780;DHT22;62328;51.19929245;4.42130175;2023-03-23T09:32:56;13.10;99.90
8780;DHT22;62328;51.19929245;4.42130175;2023-03-23T09:35:26;13.10;99.90
8780;DHT22;62328;51.19929245;4.42130175;2023-03-23T09:37:57;13.20;99.90
8780;DHT22;62328;51.19929245;4.42130175;2023-03-23T09:40:29;13.30;99.90
8780;DHT22;62328;51.19929245;4.42130175;2023-03-23T09:43:16;13.50;99.90
8780;DHT22;62328;51.19929245;4.42130175;2023-03-23T09:45:54;13.50;99.90
8780;DHT22;62328;51.19929245;4.42130175;2023-03-23T09:48:29;13.50;99.90
8780;DHT22;62328;51.19929245;4.42130175;2023-03-23T09:51:02;13.50;99.90
8780;DHT22;62328;51.19929245;4.42130175;2023-03-23T09:53:36;13.50;99.90
8780;DHT22;62328;51.19929245;4.42130175;2023-03-23T09:56:09;13.50;99.90
8780;DHT22;62328;51.19929245;4.42130175;2023-03-23T09:58:45;13.60;99.90
8780;DHT22;62328;51.19929245;4.42130175;2023-03-23T10:01:16;13.70;99.90
8780;DHT22;62328;51.19929245;4.42130175;2023-03-23T10:03:45;13.80;99.90
8780;DHT22;62328;51.19929245;4.42130175;2023-03-23T10:06:14;14.00;99.90
8780;DHT22;62328;51.19929245;4.42130175;2023-03-23T10:08:46;14.00;99.90
8780;DHT22;62328;51.19929245;4.42130175;2023-03-23T10:11:19;14.00;99.90
8780;DHT22;62328;51.19929245;4.42130175;2023-03-23T10:14:08;14.00;99.90
8780;DHT22;62328;51.19929245;4.42130175;2023-03-23T10:16:40;14.00;99.90
8780;DHT22;62328;51.19929245;4.42130175;2023-03-23T10:19:11;14.10;99.90
8780;DHT22;62328;51.19929245;4.42130175;2023-03-23T10:21:44;14.20;99.90
8780;DHT22;62328;51.19929245;4.42130175;2023-03-23T10:24:15;14.40;99.90
8780;DHT22;62328;51.19929245;4.42130175;2023-03-23T10:26:49;14.30;99.90
8780;DHT22;62328;51.19929245;4.42130175;2023-03-23T10:29:21;14.40;99.90
8780;DHT22;62328;51.19929245;4.42130175;2023-03-23T10:31:53;14.50;99.90
8780;DHT22;62328;51.19929245;4.42130175;2023-03-23T10:34:24;14.50;99.90
8780;DHT22;62328;51.19929245;4.42130175;2023-03-23T10:36:56;14.60;99.90
8780;DHT22;62328;51.19929245;4.42130175;2023-03-23T10:39:29;14.70;99.90
8780;DHT22;62328;51.19929245;4.42130175;2023-03-23T10:42:00;14.70;99.90
8780;DHT22;62328;51.19929245;4.42130175;2023-03-23T10:44:34;14.70;99.90
8780;DHT22;62328;51.19929245;4.42130175;2023-03-23T10:47:03;14.50;99.90
8780;DHT22;62328;51.19929245;4.42130175;2023-03-23T10:49:34;14.50;99.90
8780;DHT22;62328;51.19929245;4.42130175;2023-03-23T10:52:07;14.30;99.90
8780;DHT22;62328;51.19929245;4.42130175;2023-03-23T10:54:39;14.30;99.90
8780;DHT22;62328;51.19929245;4.42130175;2023-03-23T10:57:17;14.20;99.90
8780;DHT22;62328;51.19929245;4.42130175;2023-03-23T10:59:48;14.20;99.90
8780;DHT22;62328;51.19929245;4.42130175;2023-03-23T11:02:18;14.10;99.90
8780;DHT22;62328;51.19929245;4.42130175;2023-03-23T11:04:53;14.20;99.90
8780;DHT22;62328;51.19929245;4.42130175;2023-03-23T11:07:26;14.30;99.90
8780;DHT22;62328;51.19929245;4.42130175;2023-03-23T11:09:55;14.30;99.90
8780;DHT22;62328;51.19929245;4.42130175;2023-03-23T11:12:23;14.30;99.90
8780;DHT22;62328;51.19929245;4.42130175;2023-03-23T11:14:51;14.30;99.90
8780;DHT22;62328;51.19929245;4.42130175;2023-03-23T11:17:22;14.30;99.90
8780;DHT22;62328;51.19929245;4.42130175;2023-03-23T11:19:50;14.40;99.90
8780;DHT22;62328;51.19929245;4.42130175;2023-03-23T11:22:24;14.40;99.90
8780;DHT22;62328;51.19929245;4.42130175;2023-03-23T11:24:53;14.40;99.90
8780;DHT22;62328;51.19929245;4.42130175;2023-03-23T11:27:21;14.50;99.90
8780;DHT22;62328;51.19929245;4.42130175;2023-03-23T11:29:53;14.60;99.90
8780;DHT22;62328;51.19929245;4.42130175;2023-03-23T11:32:24;14.70;99.90
8780;DHT22;62328;51.19929245;4.42130175;2023-03-23T11:34:54;14.80;99.90
8780;DHT22;62328;51.19929245;4.42130175;2023-03-23T11:37:28;14.90;99.90
8780;DHT22;62328;51.19929245;4.42130175;2023-03-23T11:39:57;15.00;99.90
8780;DHT22;62328;51.19929245;4.42130175;2023-03-23T11:42:26;15.00;99.90
8780;DHT22;62328;51.19929245;4.42130175;2023-03-23T11:45:13;15.20;99.90
8780;DHT22;62328;51.19929245;4.42130175;2023-03-23T11:47:43;15.30;99.90
8780;DHT22;62328;51.19929245;4.42130175;2023-03-23T11:50:17;15.30;99.90
8780;DHT22;62328;51.19929245;4.42130175;2023-03-23T11:52:49;15.50;99.90
8780;DHT22;62328;51.19929245;4.42130175;2023-03-23T11:55:23;15.60;99.90
8780;DHT22;62328;51.19929245;4.42130175;2023-03-23T11:57:52;15.60;99.90
8780;DHT22;62328;51.19929245;4.42130175;2023-03-23T12:00:23;15.70;99.90
8780;DHT22;62328;51.19929245;4.42130175;2023-03-23T12:05:47;15.60;99.90
8780;DHT22;62328;51.19929245;4.42130175;2023-03-23T12:08:42;15.70;99.90
8780;DHT22;62328;51.19929245;4.42130175;2023-03-23T12:11:18;15.70;99.90
8780;DHT22;62328;51.19929245;4.42130175;2023-03-23T12:13:54;16.10;99.90
8780;DHT22;62328;51.19929245;4.42130175;2023-03-23T12:16:33;16.20;99.90
8780;DHT22;62328;51.19929245;4.42130175;2023-03-23T12:19:08;16.50;99.90
8780;DHT22;62328;51.19929245;4.42130175;2023-03-23T12:21:47;16.50;99.90
8780;DHT22;62328;51.19929245;4.42130175;2023-03-23T12:24:30;16.30;99.90
8780;DHT22;62328;51.19929245;4.42130175;2023-03-23T12:27:04;16.20;99.90
8780;DHT22;62328;51.19929245;4.42130175;2023-03-23T12:29:59;16.00;99.90
8780;DHT22;62328;51.19929245;4.42130175;2023-03-23T12:32:48;15.90;99.90
8780;DHT22;62328;51.19929245;4.42130175;2023-03-23T12:35:33;15.70;99.90
8780;DHT22;62328;51.19929245;4.42130175;2023-03-23T12:38:15;15.50;99.90
8780;DHT22;62328;51.19929245;4.42130175;2023-03-23T12:40:53;15.30;99.90
8780;DHT22;62328;51.19929245;4.42130175;2023-03-23T12:43:28;15.30;99.90
8780;DHT22;62328;51.19929245;4.42130175;2023-03-23T12:46:04;15.20;99.90
8780;DHT22;62328;51.19929245;4.42130175;2023-03-23T12:48:39;14.90;99.90
8780;DHT22;62328;51.19929245;4.42130175;2023-03-23T12:51:21;14.80;99.90
8780;DHT22;62328;51.19929245;4.42130175;2023-03-23T12:53:59;14.80;99.90
8780;DHT22;62328;51.19929245;4.42130175;2023-03-23T12:56:31;14.70;99.90
8780;DHT22;62328;51.19929245;4.42130175;2023-03-23T12:59:06;14.60;99.90
8780;DHT22;62328;51.19929245;4.42130175;2023-03-23T13:01:37;14.50;99.90
8780;DHT22;62328;51.19929245;4.42130175;2023-03-23T13:04:10;14.50;99.90
8780;DHT22;62328;51.19929245;4.42130175;2023-03-23T13:06:39;14.50;99.90
8780;DHT22;62328;51.19929245;4.42130175;2023-03-23T13:09:12;14.60;99.90
8780;DHT22;62328;51.19929245;4.42130175;2023-03-23T13:11:41;14.80;99.90
8780;DHT22;62328;51.19929245;4.42130175;2023-03-23T13:14:21;14.70;99.90
8780;DHT22;62328;51.19929245;4.42130175;2023-03-23T13:16:58;14.80;99.90
8780;DHT22;62328;51.19929245;4.42130175;2023-03-23T13:19:34;14.80;99.90
8780;DHT22;62328;51.19929245;4.42130175;2023-03-23T13:22:07;14.70;99.90
8780;DHT22;62328;51.19929245;4.42130175;2023-03-23T13:24:39;14.80;99.90
8780;DHT22;62328;51.19929245;4.42130175;2023-03-23T13:27:08;14.70;99.90
8780;DHT22;62328;51.19929245;4.42130175;2023-03-23T13:29:44;14.70;99.90
8780;DHT22;62328;51.19929245;4.42130175;2023-03-23T13:32:15;14.70;99.90
8780;DHT22;62328;51.19929245;4.42130175;2023-03-23T13:34:46;14.60;99.90
8780;DHT22;62328;51.19929245;4.42130175;2023-03-23T13:37:21;14.50;99.90
8780;DHT22;62328;51.19929245;4.42130175;2023-03-23T13:39:50;14.40;99.90
8780;DHT22;62328;51.19929245;4.42130175;2023-03-23T13:42:20;14.40;99.90
8780;DHT22;62328;51.19929245;4.42130175;2023-03-23T13:45:08;14.40;99.90
8780;DHT22;62328;51.19929245;4.42130175;2023-03-23T13:47:44;14.40;99.90
8780;DHT22;62328;51.19929245;4.42130175;2023-03-23T13:50:26;14.30;99.90
8780;DHT22;62328;51.19929245;4.42130175;2023-03-23T13:52:58;14.30;99.90
8780;DHT22;62328;51.19929245;4.42130175;2023-03-23T13:55:39;14.50;99.90
8780;DHT22;62328;51.19929245;4.42130175;2023-03-23T13:58:20;14.70;99.90
8780;DHT22;62328;51.19929245;4.42130175;2023-03-23T14:00:50;14.80;99.90
8780;DHT22;62328;51.19929245;4.42130175;2023-03-23T14:03:34;14.90;99.90